Time;durP1;ratioP1;P1;durP2;ratioP2;P2;SDS_P1;SDS_P2;PMS_P1;PMS_P2;Temp;Humidity;BMP_temperature;BMP_pressure;BME280_temperature;BME280_humidity;BME280_pressure;Samples;Min_cycle;Max_cycle;Signal;HPM_P1;HPM_P2
2022/04/10 00:00:42;;;;;;;5.47;4.30;;;2.30;99.90;;;;;;5006844;28;20555;-52
2022/04/10 00:03:07;;;;;;;7.57;4.43;;;2.30;99.90;;;;;;4999438;28;20933;-54
2022/04/10 00:05:34;;;;;;;8.03;4.80;;;2.20;99.90;;;;;;4986453;28;20479;-55
2022/04/10 00:08:00;;;;;;;8.83;4.20;;;2.20;99.90;;;;;;4994453;28;20446;-55
2022/04/10 00:10:25;;;;;;;10.40;4.60;;;2.20;99.90;;;;;;5011903;28;20433;-56
2022/04/10 00:12:51;;;;;;;6.30;4.50;;;2.20;99.90;;;;;;4999600;28;20434;-56
2022/04/10 00:15:17;;;;;;;8.63;4.30;;;2.20;99.90;;;;;;5010960;28;20835;-54
2022/04/10 00:17:43;;;;;;;12.07;5.13;;;2.20;99.90;;;;;;5005860;28;20650;-54
2022/04/10 00:20:10;;;;;;;5.57;4.10;;;2.20;99.90;;;;;;5010400;28;20432;-54
2022/04/10 00:22:47;;;;;;;6.70;5.23;;;2.10;99.90;;;;;;4998818;28;20196;-56
2022/04/10 00:25:15;;;;;;;3.80;3.50;;;2.10;99.90;;;;;;5002889;28;21093;-55
2022/04/10 00:27:41;;;;;;;4.77;4.20;;;2.10;99.90;;;;;;5002097;28;20434;-55
2022/04/10 00:30:08;;;;;;;12.53;4.70;;;2.10;99.90;;;;;;4999413;28;20415;-54
2022/04/10 00:32:34;;;;;;;6.10;4.20;;;2.10;99.90;;;;;;5000851;28;20258;-55
2022/04/10 00:34:59;;;;;;;5.83;4.23;;;2.10;99.90;;;;;;5015525;28;20532;-54
2022/04/10 00:37:26;;;;;;;4.63;4.17;;;2.10;99.90;;;;;;5005830;28;20179;-54
2022/04/10 00:39:52;;;;;;;4.60;3.87;;;2.00;99.90;;;;;;5006013;28;20180;-55
2022/04/10 00:42:17;;;;;;;4.00;3.60;;;2.10;99.90;;;;;;5015632;28;20434;-54
2022/04/10 00:44:43;;;;;;;7.87;4.57;;;2.00;99.90;;;;;;5005306;28;20541;-52
2022/04/10 00:47:12;;;;;;;6.73;4.40;;;2.00;99.90;;;;;;4995340;28;20230;-54
2022/04/10 00:49:38;;;;;;;5.97;4.43;;;1.90;99.90;;;;;;5008135;28;20605;-56
2022/04/10 00:52:07;;;;;;;9.53;4.07;;;1.90;99.90;;;;;;5006665;28;20435;-54
2022/04/10 00:54:34;;;;;;;4.30;3.80;;;1.90;99.90;;;;;;5003203;28;20539;-56
2022/04/10 00:57:01;;;;;;;9.13;4.77;;;1.90;99.90;;;;;;5005345;28;20448;-54
2022/04/10 00:59:27;;;;;;;8.10;4.63;;;1.80;99.90;;;;;;5001889;28;20447;-54
2022/04/10 01:01:53;;;;;;;7.37;4.37;;;1.80;99.90;;;;;;5007481;28;20434;-56
2022/04/10 01:04:19;;;;;;;4.90;4.27;;;1.70;99.90;;;;;;5007210;28;20840;-56
2022/04/10 01:06:47;;;;;;;6.67;4.30;;;1.70;99.90;;;;;;5005154;28;20509;-54
2022/04/10 01:09:13;;;;;;;4.30;3.73;;;1.60;99.90;;;;;;5009900;28;20213;-54
2022/04/10 01:11:39;;;;;;;6.70;4.27;;;1.60;99.90;;;;;;5004479;28;20446;-55
2022/04/10 01:14:05;;;;;;;8.90;5.03;;;1.60;99.90;;;;;;5013049;28;20448;-57
2022/04/10 01:16:32;;;;;;;8.70;4.90;;;1.60;99.90;;;;;;4997868;28;20189;-54
2022/04/10 01:18:58;;;;;;;7.53;4.80;;;1.60;99.90;;;;;;4995657;28;20452;-54
2022/04/10 01:21:25;;;;;;;5.80;4.63;;;1.60;99.90;;;;;;5004874;28;20728;-56
2022/04/10 01:23:53;;;;;;;10.30;4.53;;;1.60;99.90;;;;;;4990512;28;20462;-54
2022/04/10 01:26:23;;;;;;;5.77;4.77;;;1.50;99.90;;;;;;4991440;28;20487;-55
2022/04/10 01:29:03;;;;;;;15.43;4.90;;;1.50;99.90;;;;;;5000930;28;20467;-54
2022/04/10 01:31:31;;;;;;;5.47;4.10;;;1.60;99.90;;;;;;5005655;28;20494;-53
2022/04/10 01:33:59;;;;;;;5.23;4.60;;;1.60;99.90;;;;;;5010642;28;20462;-54
2022/04/10 01:36:28;;;;;;;5.27;4.33;;;1.60;99.90;;;;;;5010856;28;20901;-56
2022/04/10 01:38:57;;;;;;;6.30;4.70;;;1.60;99.90;;;;;;5004000;28;20436;-52
2022/04/10 01:41:27;;;;;;;6.80;4.40;;;1.60;99.90;;;;;;5014554;28;20425;-56
2022/04/10 01:43:54;;;;;;;6.73;4.27;;;1.60;99.90;;;;;;5003690;28;20903;-55
2022/04/10 01:46:22;;;;;;;5.73;4.13;;;1.50;99.90;;;;;;5015462;28;20435;-54
2022/04/10 01:48:47;;;;;;;6.43;4.47;;;1.50;99.90;;;;;;5006859;28;20489;-54
2022/04/10 01:51:14;;;;;;;4.50;3.83;;;1.50;99.90;;;;;;5006806;28;20824;-55
2022/04/10 01:53:39;;;;;;;8.07;4.60;;;1.40;99.90;;;;;;5006163;28;20187;-54
2022/04/10 01:56:07;;;;;;;6.90;4.70;;;1.30;99.90;;;;;;5003865;28;20519;-54
2022/04/10 01:58:36;;;;;;;7.63;4.43;;;1.30;99.90;;;;;;5005286;28;20218;-55
2022/04/10 02:01:03;;;;;;;8.37;4.40;;;1.30;99.90;;;;;;5009114;28;20517;-53
2022/04/10 02:03:29;;;;;;;13.50;5.00;;;1.30;99.90;;;;;;4998698;28;20435;-55
2022/04/10 02:05:55;;;;;;;5.97;4.40;;;1.30;99.90;;;;;;5005113;28;20465;-54
2022/04/10 02:08:22;;;;;;;6.23;4.20;;;1.30;99.90;;;;;;5011525;28;20191;-55
2022/04/10 02:10:47;;;;;;;7.17;4.47;;;1.30;99.90;;;;;;5005223;28;20437;-55
2022/04/10 02:13:13;;;;;;;7.70;4.30;;;1.20;99.90;;;;;;5005573;28;20471;-54
2022/04/10 02:15:39;;;;;;;6.13;4.17;;;1.20;99.90;;;;;;5002469;28;20203;-55
2022/04/10 02:18:06;;;;;;;6.57;4.90;;;1.20;99.90;;;;;;5011222;28;20202;-56
2022/04/10 02:20:32;;;;;;;8.43;4.60;;;1.20;99.90;;;;;;5001437;28;20454;-55
2022/04/10 02:22:57;;;;;;;6.30;4.03;;;1.20;99.90;;;;;;5013361;28;20601;-54
2022/04/10 02:25:23;;;;;;;5.87;4.27;;;1.20;99.90;;;;;;4995893;28;20629;-54
2022/04/10 02:27:49;;;;;;;7.23;4.40;;;1.20;99.90;;;;;;4991323;28;20206;-55
2022/04/10 02:30:14;;;;;;;6.07;4.50;;;1.20;99.90;;;;;;5004672;28;20582;-55
2022/04/10 02:32:40;;;;;;;7.63;4.43;;;1.10;99.90;;;;;;5011359;28;20252;-54
2022/04/10 02:35:07;;;;;;;7.40;3.80;;;1.10;99.90;;;;;;4999503;28;20759;-54
2022/04/10 02:37:33;;;;;;;7.63;4.80;;;1.10;99.90;;;;;;4990892;28;20574;-54
2022/04/10 02:39:59;;;;;;;5.90;4.20;;;1.10;99.90;;;;;;5002883;28;20526;-55
2022/04/10 02:42:24;;;;;;;6.37;4.20;;;1.00;99.90;;;;;;5010998;28;20556;-54
2022/04/10 02:44:50;;;;;;;11.47;3.93;;;1.00;99.90;;;;;;4995348;28;20214;-54
2022/04/10 02:47:16;;;;;;;5.73;4.00;;;1.00;99.90;;;;;;5014590;28;20171;-54
2022/04/10 02:49:41;;;;;;;4.53;4.10;;;1.00;99.90;;;;;;5004424;28;20195;-55
2022/04/10 02:52:07;;;;;;;5.77;4.33;;;1.00;99.90;;;;;;5014638;28;20191;-53
2022/04/10 02:54:33;;;;;;;10.70;4.00;;;1.00;99.90;;;;;;4998644;28;20291;-54
2022/04/10 02:56:59;;;;;;;6.13;4.40;;;1.00;99.90;;;;;;5005918;28;20182;-54
2022/04/10 02:59:24;;;;;;;7.27;4.70;;;1.00;99.90;;;;;;5001132;28;20188;-54
2022/04/10 03:01:50;;;;;;;4.83;4.30;;;0.90;99.90;;;;;;5003060;28;20238;-54
2022/04/10 03:04:17;;;;;;;7.07;4.30;;;0.90;99.90;;;;;;4990122;28;20226;-54
2022/04/10 03:06:42;;;;;;;4.60;4.20;;;0.90;99.90;;;;;;4990849;28;20171;-57
2022/04/10 03:09:08;;;;;;;7.37;5.33;;;0.90;99.90;;;;;;4992036;28;20608;-54
2022/04/10 03:11:34;;;;;;;9.13;4.20;;;0.90;99.90;;;;;;5045018;22;20207;-57
2022/04/10 03:13:59;;;;;;;4.33;3.93;;;0.90;99.90;;;;;;5030572;28;20204;-60
2022/04/10 03:16:25;;;;;;;6.93;4.20;;;0.90;99.90;;;;;;5040855;28;20235;-59
2022/04/10 03:18:51;;;;;;;7.37;4.40;;;0.90;99.90;;;;;;5021783;28;20189;-59
2022/04/10 03:21:20;;;;;;;6.80;5.40;;;0.80;99.90;;;;;;5024746;28;20183;-60
2022/04/10 03:23:46;;;;;;;14.23;4.70;;;0.90;99.90;;;;;;5031968;28;20524;-59
2022/04/10 03:26:11;;;;;;;10.53;4.80;;;0.80;99.90;;;;;;5008884;28;20510;-60
2022/04/10 03:28:37;;;;;;;7.30;5.50;;;0.80;99.90;;;;;;5010727;28;20994;-59
2022/04/10 03:31:03;;;;;;;11.13;4.60;;;0.80;99.90;;;;;;5029227;28;20229;-59
2022/04/10 03:33:28;;;;;;;8.87;4.60;;;0.80;99.90;;;;;;5010777;28;20519;-59
2022/04/10 03:35:54;;;;;;;9.90;4.50;;;0.80;99.90;;;;;;5022390;28;20203;-59
2022/04/10 03:38:20;;;;;;;6.20;4.57;;;0.70;99.90;;;;;;5017168;28;20186;-59
2022/04/10 03:40:46;;;;;;;8.20;4.50;;;0.80;99.90;;;;;;5023874;28;20278;-59
2022/04/10 03:43:12;;;;;;;7.30;3.73;;;0.80;99.90;;;;;;5035367;28;21005;-59
2022/04/10 03:45:38;;;;;;;5.00;4.13;;;0.80;99.90;;;;;;5012336;28;20845;-60
2022/04/10 03:48:06;;;;;;;4.70;4.30;;;0.70;99.90;;;;;;5049679;28;20778;-59
2022/04/10 03:50:33;;;;;;;7.30;4.47;;;0.70;99.90;;;;;;5027326;28;20431;-58
2022/04/10 03:53:03;;;;;;;7.43;4.20;;;0.70;99.90;;;;;;5020632;28;20528;-59
2022/04/10 03:55:30;;;;;;;7.27;4.17;;;0.70;99.90;;;;;;5026023;28;20449;-59
2022/04/10 03:57:56;;;;;;;5.10;4.30;;;0.70;99.90;;;;;;5037416;28;20793;-59
2022/04/10 04:00:21;;;;;;;4.73;4.23;;;0.70;99.90;;;;;;5022551;28;20454;-59
2022/04/10 04:02:47;;;;;;;5.97;4.20;;;0.70;99.90;;;;;;5028957;28;20819;-60
2022/04/10 04:05:13;;;;;;;6.37;4.50;;;0.70;99.90;;;;;;5021852;28;20294;-59
2022/04/10 04:07:39;;;;;;;6.77;4.37;;;0.70;99.90;;;;;;5033411;28;20180;-59
2022/04/10 04:10:06;;;;;;;4.40;4.00;;;0.70;99.90;;;;;;5026192;28;20651;-59
2022/04/10 04:12:34;;;;;;;5.53;4.30;;;0.60;99.90;;;;;;5035542;28;20456;-58
2022/04/10 04:15:00;;;;;;;9.27;5.07;;;0.70;99.90;;;;;;5013098;28;20527;-58
2022/04/10 04:17:25;;;;;;;5.80;4.03;;;0.60;99.90;;;;;;5030939;28;20523;-60
2022/04/10 04:19:51;;;;;;;5.20;3.93;;;0.60;99.90;;;;;;5025776;28;20178;-58
2022/04/10 04:22:17;;;;;;;7.20;4.03;;;0.60;99.90;;;;;;4998238;28;20573;-59
2022/04/10 04:24:44;;;;;;;5.23;4.20;;;0.60;99.90;;;;;;4999441;28;21159;-59
2022/04/10 04:27:10;;;;;;;7.80;4.30;;;0.60;99.90;;;;;;5019212;28;20467;-59
2022/04/10 04:29:35;;;;;;;7.87;4.53;;;0.60;99.90;;;;;;5019352;28;20950;-59
2022/04/10 04:32:01;;;;;;;6.53;4.60;;;0.50;99.90;;;;;;5029660;28;21015;-59
2022/04/10 04:34:27;;;;;;;7.23;5.07;;;0.50;99.90;;;;;;5040003;28;20173;-59
2022/04/10 04:36:52;;;;;;;7.00;4.33;;;0.40;99.90;;;;;;5016930;28;20769;-60
2022/04/10 04:39:19;;;;;;;5.63;4.43;;;0.40;99.90;;;;;;5001347;28;20183;-59
2022/04/10 04:41:44;;;;;;;6.67;4.80;;;0.40;99.90;;;;;;5006748;28;20284;-59
2022/04/10 04:44:10;;;;;;;5.40;4.83;;;0.40;99.90;;;;;;5033466;28;21022;-58
2022/04/10 04:46:36;;;;;;;7.00;4.10;;;0.40;99.90;;;;;;5037081;28;20229;-60
2022/04/10 04:49:02;;;;;;;5.93;4.57;;;0.40;99.90;;;;;;5027708;28;20185;-60
2022/04/10 04:51:28;;;;;;;7.53;5.73;;;0.40;99.90;;;;;;5032260;28;20524;-59
2022/04/10 04:53:54;;;;;;;8.77;5.60;;;0.30;99.90;;;;;;5002876;28;20439;-59
2022/04/10 04:56:19;;;;;;;5.43;4.73;;;0.30;99.90;;;;;;5027742;28;20436;-59
2022/04/10 04:58:47;;;;;;;7.50;5.20;;;0.30;99.90;;;;;;5007935;28;20974;-59
2022/04/10 05:01:13;;;;;;;8.83;5.80;;;0.30;99.90;;;;;;5015121;28;20185;-60
2022/04/10 05:03:39;;;;;;;9.40;5.87;;;0.20;99.90;;;;;;5017918;28;20452;-59
2022/04/10 05:06:05;;;;;;;8.13;5.77;;;0.20;99.90;;;;;;5032029;28;20472;-59
2022/04/10 05:08:31;;;;;;;9.60;5.13;;;0.20;99.90;;;;;;5009611;28;20174;-59
2022/04/10 05:10:59;;;;;;;7.57;5.27;;;0.20;99.90;;;;;;5020986;28;20204;-59
2022/04/10 05:13:25;;;;;;;8.73;6.37;;;0.20;99.90;;;;;;5047941;28;20628;-59
2022/04/10 05:15:51;;;;;;;10.00;5.80;;;0.20;99.90;;;;;;5020558;28;20435;-59
2022/04/10 05:18:19;;;;;;;10.40;4.43;;;0.30;99.90;;;;;;5031199;28;20437;-60
2022/04/10 05:20:45;;;;;;;7.50;4.70;;;0.40;99.90;;;;;;4998342;28;20216;-60
2022/04/10 05:23:11;;;;;;;6.83;4.70;;;0.40;99.90;;;;;;5011576;28;21126;-59
2022/04/10 05:25:37;;;;;;;7.37;4.60;;;0.40;99.90;;;;;;5010440;28;20475;-60
2022/04/10 05:28:03;;;;;;;9.97;5.00;;;0.50;99.90;;;;;;5031905;28;20542;-60
2022/04/10 05:30:29;;;;;;;7.40;5.10;;;0.60;99.90;;;;;;5017169;28;20494;-60
2022/04/10 05:32:55;;;;;;;12.10;4.50;;;0.70;99.90;;;;;;5030605;28;20486;-60
2022/04/10 05:35:20;;;;;;;7.83;5.37;;;0.70;99.90;;;;;;5037133;28;20778;-60
2022/04/10 05:37:46;;;;;;;8.87;5.70;;;0.80;99.90;;;;;;5026316;28;20239;-58
2022/04/10 05:40:12;;;;;;;8.33;5.10;;;0.80;99.90;;;;;;5013630;28;20194;-60
2022/04/10 05:42:41;;;;;;;8.13;4.90;;;0.90;99.90;;;;;;5012518;28;20248;-59
2022/04/10 05:45:07;;;;;;;7.50;5.30;;;1.00;99.90;;;;;;5011934;28;21044;-63
2022/04/10 05:47:33;;;;;;;5.00;4.50;;;1.10;99.90;;;;;;5004219;28;20441;-60
2022/04/10 05:49:59;;;;;;;9.13;5.60;;;1.20;99.90;;;;;;5004495;28;20437;-59
2022/04/10 05:52:24;;;;;;;6.83;5.27;;;1.20;99.90;;;;;;5026970;28;20285;-61
2022/04/10 05:54:50;;;;;;;10.53;5.47;;;1.30;99.90;;;;;;5012776;28;20244;-60
2022/04/10 05:57:16;;;;;;;8.70;4.70;;;1.40;99.90;;;;;;5018713;28;20181;-59
2022/04/10 05:59:41;;;;;;;9.13;5.70;;;1.40;99.90;;;;;;5016910;28;20187;-59
2022/04/10 06:02:07;;;;;;;8.37;5.40;;;1.50;99.90;;;;;;5019315;28;20220;-59
2022/04/10 06:04:32;;;;;;;6.27;5.03;;;1.50;99.90;;;;;;5012621;28;20213;-60
2022/04/10 06:06:58;;;;;;;10.40;6.10;;;1.60;99.90;;;;;;5017365;28;20627;-60
2022/04/10 06:09:24;;;;;;;8.23;5.30;;;1.70;99.90;;;;;;5020291;28;20219;-61
2022/04/10 06:11:49;;;;;;;12.00;6.73;;;1.80;99.90;;;;;;5016840;28;20264;-61
2022/04/10 06:14:15;;;;;;;8.17;5.00;;;1.90;99.90;;;;;;5013557;28;20209;-60
2022/04/10 06:16:40;;;;;;;6.77;5.13;;;2.00;99.90;;;;;;5013610;28;20320;-61
2022/04/10 06:19:06;;;;;;;8.37;5.37;;;2.10;99.90;;;;;;5017082;28;20186;-61
2022/04/10 06:21:32;;;;;;;9.53;5.33;;;2.10;99.90;;;;;;5023724;28;20367;-59
2022/04/10 06:23:57;;;;;;;8.37;5.43;;;2.30;99.90;;;;;;5018247;28;20307;-61
2022/04/10 06:26:23;;;;;;;8.03;4.93;;;2.40;99.90;;;;;;5017509;28;20175;-60
2022/04/10 06:28:49;;;;;;;8.40;5.10;;;2.60;99.90;;;;;;5023160;28;20631;-60
2022/04/10 06:31:14;;;;;;;7.70;5.37;;;2.70;98.90;;;;;;4999075;28;20177;-61
2022/04/10 06:33:40;;;;;;;9.57;5.10;;;2.70;95.40;;;;;;5030295;28;20556;-60
2022/04/10 06:36:06;;;;;;;6.90;5.47;;;2.80;95.90;;;;;;5012175;28;20187;-62
2022/04/10 06:38:31;;;;;;;13.20;6.60;;;2.80;96.20;;;;;;5011125;28;20267;-60
2022/04/10 06:40:57;;;;;;;10.10;6.67;;;2.80;91.90;;;;;;5011381;28;20176;-59
2022/04/10 06:43:22;;;;;;;9.27;6.40;;;2.70;93.70;;;;;;5014424;28;20196;-60
2022/04/10 06:45:48;;;;;;;13.60;6.10;;;2.80;95.40;;;;;;5011943;28;20199;-60
2022/04/10 06:48:14;;;;;;;8.70;6.47;;;2.80;96.10;;;;;;5011324;28;20258;-60
2022/04/10 06:50:40;;;;;;;9.60;6.70;;;2.90;96.80;;;;;;5011944;28;20843;-61
2022/04/10 06:53:06;;;;;;;10.37;6.87;;;2.90;96.90;;;;;;5016045;28;20451;-59
2022/04/10 06:55:32;;;;;;;11.10;7.70;;;3.10;97.00;;;;;;5014057;28;20186;-60
2022/04/10 06:57:57;;;;;;;16.00;7.70;;;3.10;96.40;;;;;;4997785;28;20441;-60
2022/04/10 07:00:23;;;;;;;10.20;6.70;;;3.20;95.80;;;;;;5011545;28;20176;-60
2022/04/10 07:02:49;;;;;;;9.80;7.00;;;3.30;94.80;;;;;;5020959;28;20195;-60
2022/04/10 07:05:15;;;;;;;8.50;6.20;;;3.40;92.60;;;;;;5038458;28;20245;-59
2022/04/10 07:07:41;;;;;;;9.57;6.50;;;3.30;89.70;;;;;;5033815;28;20481;-60
2022/04/10 07:10:07;;;;;;;9.73;6.47;;;3.30;92.10;;;;;;5019853;28;20176;-59
2022/04/10 07:12:32;;;;;;;14.40;6.87;;;3.40;91.90;;;;;;5036170;28;21088;-60
2022/04/10 07:15:01;;;;;;;11.20;7.37;;;3.50;93.30;;;;;;5018768;28;21257;-55
2022/04/10 07:17:29;;;;;;;8.57;6.80;;;3.60;93.30;;;;;;5008529;28;20291;-60
2022/04/10 07:19:55;;;;;;;10.97;5.93;;;3.60;91.90;;;;;;5022716;28;20459;-61
2022/04/10 07:25:05;;;;;;;7.93;5.60;;;3.70;82.30;;;;;;5016418;28;20459;-60
2022/04/10 07:27:31;;;;;;;6.53;5.40;;;3.80;83.10;;;;;;5023861;28;20431;-59
2022/04/10 07:29:56;;;;;;;9.93;6.20;;;3.90;83.10;;;;;;5014087;28;20431;-59
2022/04/10 07:32:22;;;;;;;8.30;6.07;;;4.00;85.30;;;;;;5000055;28;20279;-59
2022/04/10 07:34:47;;;;;;;9.50;5.90;;;4.10;84.70;;;;;;5005684;28;20583;-59
2022/04/10 07:37:13;;;;;;;8.47;5.63;;;4.20;82.20;;;;;;5008075;28;20180;-60
2022/04/10 07:39:39;;;;;;;9.70;6.03;;;4.30;76.40;;;;;;4992820;28;20494;-60
2022/04/10 07:42:05;;;;;;;7.93;6.33;;;4.30;77.10;;;;;;5010924;28;20198;-60
2022/04/10 07:44:31;;;;;;;9.67;6.17;;;4.40;77.40;;;;;;5010328;28;20459;-58
2022/04/10 07:49:41;;;;;;;7.50;5.57;;;4.60;73.20;;;;;;5011612;28;20192;-61
2022/04/10 07:52:06;;;;;;;9.13;5.60;;;4.70;71.90;;;;;;5009872;28;20604;-62
2022/04/10 07:54:32;;;;;;;8.77;6.03;;;4.80;69.50;;;;;;5005227;28;20180;-60
2022/04/10 07:56:58;;;;;;;11.97;5.77;;;4.90;70.00;;;;;;5007839;28;20191;-60
2022/04/10 07:59:23;;;;;;;9.90;5.70;;;5.00;68.00;;;;;;5016208;28;20214;-60
2022/04/10 08:01:50;;;;;;;10.20;5.70;;;5.10;63.20;;;;;;5009298;28;20191;-60
2022/04/10 08:04:15;;;;;;;6.10;5.13;;;5.10;59.90;;;;;;5007603;28;20626;-61
2022/04/10 08:06:41;;;;;;;10.40;5.50;;;5.10;60.30;;;;;;5017163;28;20431;-61
2022/04/10 08:09:06;;;;;;;10.70;5.80;;;5.00;60.10;;;;;;4998051;28;20261;-61
2022/04/10 08:11:32;;;;;;;8.30;5.67;;;5.00;59.90;;;;;;5009356;28;20723;-61
2022/04/10 08:13:58;;;;;;;6.53;5.43;;;4.90;59.30;;;;;;5009779;28;20195;-60
2022/04/10 08:16:23;;;;;;;9.70;5.80;;;4.90;59.50;;;;;;5010467;28;20219;-61
2022/04/10 08:18:49;;;;;;;6.97;5.47;;;4.90;58.90;;;;;;4997973;28;20171;-60
2022/04/10 08:21:15;;;;;;;9.93;6.00;;;5.00;59.20;;;;;;5011349;28;20241;-60
2022/04/10 08:23:41;;;;;;;9.77;5.37;;;5.20;59.30;;;;;;5012309;28;21061;-60
2022/04/10 08:26:07;;;;;;;6.47;5.13;;;5.40;59.20;;;;;;5003933;28;20298;-60
2022/04/10 08:28:34;;;;;;;6.90;5.10;;;5.60;56.80;;;;;;5011950;28;20179;-61
2022/04/10 08:31:00;;;;;;;6.80;5.33;;;5.70;56.30;;;;;;5011018;28;20211;-61
2022/04/10 08:33:26;;;;;;;4.87;4.10;;;5.80;55.90;;;;;;5010243;28;20485;-61
2022/04/10 08:35:52;;;;;;;9.33;5.17;;;5.90;56.00;;;;;;5017255;28;20178;-60
2022/04/10 08:38:18;;;;;;;8.47;4.57;;;6.00;56.10;;;;;;5012675;28;20449;-60
2022/04/10 08:40:45;;;;;;;6.93;5.77;;;6.20;56.10;;;;;;5004718;28;20236;-59
2022/04/10 08:43:11;;;;;;;11.27;5.30;;;6.30;55.60;;;;;;5008884;28;20712;-60
2022/04/10 08:45:39;;;;;;;7.00;4.70;;;6.50;55.80;;;;;;5007490;28;20576;-58
2022/04/10 08:48:05;;;;;;;8.40;5.10;;;6.70;55.40;;;;;;5003245;28;20436;-60
2022/04/10 08:50:31;;;;;;;6.37;5.40;;;6.90;54.20;;;;;;5005161;28;20462;-60
2022/04/10 08:52:58;;;;;;;8.73;5.23;;;6.90;52.70;;;;;;5006868;28;20458;-59
2022/04/10 08:55:25;;;;;;;7.10;4.87;;;7.00;52.50;;;;;;5007420;28;20442;-59
2022/04/10 08:57:50;;;;;;;7.27;5.00;;;6.90;52.20;;;;;;5010673;28;20431;-59
2022/04/10 09:00:19;;;;;;;5.70;4.53;;;6.80;52.80;;;;;;5011432;28;20496;-61
2022/04/10 09:02:52;;;;;;;7.70;5.00;;;6.80;52.80;;;;;;5010856;28;20285;-60
2022/04/10 09:05:25;;;;;;;6.50;4.00;;;6.90;52.20;;;;;;5009602;28;20451;-60
2022/04/10 09:08:18;;;;;;;10.20;5.10;;;7.00;51.20;;;;;;5011578;28;20434;-59
2022/04/10 09:10:53;;;;;;;8.20;4.70;;;7.10;49.50;;;;;;5010451;28;20438;-60
2022/04/10 09:13:31;;;;;;;6.43;4.77;;;6.90;49.20;;;;;;5010383;28;20661;-59
2022/04/10 09:16:06;;;;;;;10.13;4.60;;;7.00;51.00;;;;;;5013513;28;20962;-59
2022/04/10 09:18:44;;;;;;;5.10;4.60;;;7.20;50.10;;;;;;5000521;28;20479;-59
2022/04/10 09:21:09;;;;;;;6.10;4.97;;;7.50;49.80;;;;;;5003295;28;20539;-60
2022/04/10 09:23:35;;;;;;;5.17;4.07;;;7.60;48.80;;;;;;5014061;28;21967;-59
2022/04/10 09:26:01;;;;;;;10.20;4.77;;;7.50;49.00;;;;;;5012830;28;20313;-59
2022/04/10 09:28:43;;;;;;;4.67;4.03;;;7.30;48.70;;;;;;5006425;28;20904;-60
2022/04/10 09:31:29;;;;;;;6.07;4.63;;;7.10;48.80;;;;;;4998578;28;20438;-59
2022/04/10 09:33:55;;;;;;;11.70;5.20;;;6.90;49.00;;;;;;5013860;28;20525;-61
2022/04/10 09:36:40;;;;;;;5.17;4.67;;;6.80;50.00;;;;;;5011556;28;20509;-60
2022/04/10 09:39:14;;;;;;;6.70;4.30;;;6.70;50.30;;;;;;5012005;28;20435;-60
2022/04/10 09:41:42;;;;;;;7.03;4.20;;;6.50;50.30;;;;;;5014851;28;20460;-61
2022/04/10 09:44:21;;;;;;;8.03;5.37;;;6.40;51.30;;;;;;5016413;28;20669;-59
2022/04/10 09:47:07;;;;;;;7.60;4.73;;;6.40;51.30;;;;;;5015384;28;20954;-61
2022/04/10 09:49:37;;;;;;;8.20;4.90;;;6.30;51.40;;;;;;5016255;28;20431;-61
2022/04/10 09:52:11;;;;;;;5.23;4.33;;;6.30;50.90;;;;;;5012082;28;20942;-61
2022/04/10 09:54:41;;;;;;;6.43;5.00;;;6.30;49.70;;;;;;5015530;28;20450;-61
2022/04/10 09:57:13;;;;;;;7.57;5.30;;;6.30;50.50;;;;;;5015326;28;20526;-61
2022/04/10 09:59:43;;;;;;;5.57;4.37;;;6.30;51.00;;;;;;5021734;28;20450;-61
2022/04/10 10:02:13;;;;;;;6.73;4.77;;;6.40;51.70;;;;;;4993443;28;20462;-60
2022/04/10 10:04:41;;;;;;;5.30;4.53;;;6.40;52.10;;;;;;5015775;28;20987;-62
2022/04/10 10:07:17;;;;;;;6.43;4.17;;;6.40;51.90;;;;;;4997600;28;21033;-60
2022/04/10 10:09:46;;;;;;;5.90;4.20;;;6.30;50.80;;;;;;5013613;28;20433;-61
2022/04/10 10:12:12;;;;;;;5.00;3.93;;;6.20;51.30;;;;;;5041591;22;20490;-55
2022/04/10 10:14:39;;;;;;;8.50;4.63;;;6.10;52.10;;;;;;5018520;28;20440;-55
2022/04/10 10:17:06;;;;;;;5.37;4.63;;;6.00;53.10;;;;;;5021603;28;20461;-55
2022/04/10 10:19:34;;;;;;;5.77;4.07;;;6.00;53.50;;;;;;5023812;28;20807;-56
2022/04/10 10:22:01;;;;;;;6.47;4.73;;;6.00;54.20;;;;;;5020069;28;20477;-56
2022/04/10 10:24:33;;;;;;;8.17;5.67;;;6.10;54.60;;;;;;5018886;28;20478;-55
2022/04/10 10:27:26;;;;;;;5.50;4.47;;;6.30;55.20;;;;;;5017038;28;20426;-58
2022/04/10 10:29:58;;;;;;;14.23;5.70;;;6.40;54.80;;;;;;5020041;28;20419;-60
2022/04/10 10:32:42;;;;;;;8.67;4.60;;;6.60;54.10;;;;;;5026534;28;20477;-57
2022/04/10 10:35:13;;;;;;;5.93;4.23;;;6.80;53.50;;;;;;5007330;28;20430;-57
2022/04/10 10:38:17;;;;;;;5.50;4.00;;;7.20;53.10;;;;;;5027201;28;20521;-56
2022/04/10 10:40:43;;;;;;;4.50;3.90;;;7.60;53.10;;;;;;5020603;28;21047;-56
2022/04/10 10:43:08;;;;;;;9.13;5.43;;;7.90;52.60;;;;;;5021288;28;20435;-57
2022/04/10 10:45:41;;;;;;;5.93;4.10;;;7.90;51.70;;;;;;5023727;28;20207;-56
2022/04/10 10:48:32;;;;;;;6.77;4.87;;;7.80;51.20;;;;;;5027829;28;20249;-57
2022/04/10 10:51:24;;;;;;;4.47;3.70;;;7.70;51.30;;;;;;5018890;28;20450;-58
2022/04/10 10:53:53;;;;;;;5.50;4.10;;;7.50;51.00;;;;;;5007356;28;20427;-56
2022/04/10 10:56:22;;;;;;;6.70;4.27;;;7.40;50.80;;;;;;5020559;28;20430;-53
2022/04/10 10:58:49;;;;;;;5.50;4.30;;;7.20;49.70;;;;;;5016923;28;20489;-56
2022/04/10 11:01:26;;;;;;;5.90;3.80;;;7.10;49.20;;;;;;5019667;28;20462;-56
2022/04/10 11:04:06;;;;;;;5.43;3.80;;;7.00;49.10;;;;;;5016783;28;20762;-57
2022/04/10 11:06:43;;;;;;;5.93;3.63;;;6.90;49.50;;;;;;5021439;28;20435;-58
2022/04/10 11:09:32;;;;;;;8.07;3.77;;;6.90;50.20;;;;;;4995056;28;20465;-61
2022/04/10 11:11:59;;;;;;;4.30;3.90;;;6.90;49.40;;;;;;5007052;28;20477;-58
2022/04/10 11:14:41;;;;;;;3.63;3.33;;;6.90;49.60;;;;;;5018455;28;20481;-59
2022/04/10 11:17:20;;;;;;;4.53;3.70;;;6.90;49.50;;;;;;5016559;28;20446;-59
2022/04/10 11:19:48;;;;;;;4.10;3.07;;;6.80;49.70;;;;;;5006999;28;20868;-58
2022/04/10 11:22:25;;;;;;;3.70;3.40;;;6.80;50.30;;;;;;4996520;28;20474;-62
2022/04/10 11:24:53;;;;;;;8.40;4.90;;;6.70;51.10;;;;;;5016865;28;20462;-60
2022/04/10 11:27:44;;;;;;;5.10;4.23;;;6.60;52.10;;;;;;5012705;28;20426;-56
2022/04/10 11:30:13;;;;;;;4.80;3.80;;;6.50;52.90;;;;;;5018469;28;20501;-59
2022/04/10 11:32:45;;;;;;;6.47;4.47;;;6.50;53.50;;;;;;5027930;28;20518;-59
2022/04/10 11:35:35;;;;;;;6.80;4.60;;;6.40;54.20;;;;;;5016897;28;20814;-57
2022/04/10 11:38:13;;;;;;;5.10;3.90;;;6.40;55.80;;;;;;5012209;28;20487;-59
2022/04/10 11:40:50;;;;;;;5.03;3.80;;;6.40;56.20;;;;;;5018027;28;20470;-59
2022/04/10 11:43:17;;;;;;;8.27;3.70;;;6.40;55.10;;;;;;5020672;28;20434;-59
2022/04/10 11:45:44;;;;;;;4.00;3.40;;;6.40;53.90;;;;;;5001439;28;20463;-59
2022/04/10 11:48:10;;;;;;;6.37;3.60;;;6.40;54.30;;;;;;5020558;28;20492;-58
2022/04/10 11:50:38;;;;;;;5.73;4.00;;;6.40;55.80;;;;;;5016784;28;20426;-59
2022/04/10 11:53:07;;;;;;;5.40;3.60;;;6.60;57.20;;;;;;5017787;28;20450;-56
2022/04/10 11:55:42;;;;;;;5.20;4.20;;;6.70;56.40;;;;;;5005122;28;21027;-57
2022/04/10 11:58:15;;;;;;;5.07;3.70;;;6.90;56.90;;;;;;5019185;28;20457;-56
2022/04/10 12:00:58;;;;;;;5.50;3.90;;;7.20;57.40;;;;;;5022237;28;20438;-59
2022/04/10 12:03:26;;;;;;;4.47;3.43;;;7.40;56.10;;;;;;5016079;28;20458;-58
2022/04/10 12:05:53;;;;;;;4.40;3.47;;;7.70;55.40;;;;;;5013523;28;20458;-58
2022/04/10 12:08:20;;;;;;;3.83;3.27;;;8.00;54.30;;;;;;5021885;28;20434;-57
2022/04/10 12:10:57;;;;;;;3.80;3.23;;;8.20;53.30;;;;;;5021445;28;20442;-58
2022/04/10 12:13:37;;;;;;;5.03;3.40;;;8.30;53.00;;;;;;5017819;28;20938;-58
2022/04/10 12:16:10;;;;;;;6.23;3.37;;;8.40;52.80;;;;;;5021429;28;21001;-60
2022/04/10 12:18:56;;;;;;;3.37;3.07;;;8.40;52.20;;;;;;5020994;28;20438;-58
2022/04/10 12:21:23;;;;;;;4.53;3.60;;;8.30;49.90;;;;;;5003122;28;20458;-58
2022/04/10 12:23:59;;;;;;;3.60;2.90;;;8.10;50.00;;;;;;5019763;28;20430;-61
2022/04/10 12:26:26;;;;;;;7.27;4.70;;;7.90;50.30;;;;;;5019578;28;20934;-58
2022/04/10 12:28:52;;;;;;;4.20;3.27;;;7.80;50.10;;;;;;5004762;28;20423;-59
2022/04/10 12:31:19;;;;;;;3.67;3.37;;;7.70;50.40;;;;;;5001221;28;20490;-60
2022/04/10 12:33:46;;;;;;;4.33;3.20;;;7.70;50.40;;;;;;5014219;28;20556;-59
2022/04/10 12:36:16;;;;;;;6.73;3.87;;;7.60;50.70;;;;;;5013934;28;20439;-59
2022/04/10 12:38:42;;;;;;;4.40;3.77;;;7.60;51.00;;;;;;5009641;28;20447;-57
2022/04/10 12:41:08;;;;;;;4.70;3.80;;;7.50;50.20;;;;;;5009105;28;20470;-55
2022/04/10 12:43:34;;;;;;;7.37;4.30;;;7.50;50.60;;;;;;5015554;28;20179;-55
2022/04/10 12:46:10;;;;;;;7.60;5.13;;;7.50;51.60;;;;;;5018351;28;20799;-58
2022/04/10 12:48:37;;;;;;;5.47;3.70;;;7.60;52.20;;;;;;5018394;28;20180;-59
2022/04/10 12:51:23;;;;;;;5.97;4.07;;;7.60;52.30;;;;;;5020173;28;20491;-58
2022/04/10 12:53:51;;;;;;;3.67;3.10;;;7.70;52.30;;;;;;5017855;28;20442;-58
2022/04/10 12:56:22;;;;;;;3.77;3.37;;;7.80;51.70;;;;;;5020680;28;20450;-58
2022/04/10 12:58:51;;;;;;;5.80;3.40;;;7.90;51.00;;;;;;5026130;28;20430;-59
2022/04/10 13:01:31;;;;;;;5.20;3.10;;;7.90;50.70;;;;;;5020791;28;20458;-59
2022/04/10 13:03:58;;;;;;;5.27;3.30;;;8.00;50.10;;;;;;5021831;28;20438;-59
2022/04/10 13:06:44;;;;;;;3.33;3.03;;;8.10;50.20;;;;;;5003390;28;20791;-58